x

Stonewall Bank - 20nm West Of Newport, Or (46050) Wave Buoy

9:50pm - Sat 27th May 2017 All times are PDT. -7 hours from GMT.

  • Sig Wave height 5.2ft
  • Swell Direction
  • Peak Period 11s
  • Average Period 8s
  • Wind
    2mph, 4mph gusts
  • Sea Temp 55°f
  • Sea Pressure 1019.9mb
  • Stonewall Bank - 20nm West Of Newport, Or
  • Stonewall Bank - 20nm West Of Newport, Or

More Historic Weather Station data

Upgrade to MSW Pro to gain access to the past 30 days of data for over 8000 Wavebouys and Weather Stations around the globe.

Join Pro

Comparision Forecast

View Surf forecast
   
Sat 05/27 9:50pm 5ft 11s 8s 2 4 mph 1019.9mb 55f
8:50pm 5.5ft 9s 8s 2 4 mph 1019.6mb 55f
7:50pm 5.5ft 11s 7s  -  0 mph 1019.2mb 55f
6:50pm 5.5ft 11s 7s 2 7 mph 1019.2mb 56f
5:50pm 6ft 10s 7s 4 7 mph 1019.3mb 56f
4:50pm 6ft 11s 7s 7 9 mph 1019.1mb 55f
3:50pm 6ft 9s 7s 7 9 mph 1019.2mb 56f
2:50pm 6.5ft 9s 7s 7 7 mph 1019.2mb 55f
1:50pm 6.5ft 8s 7s 7 7 mph 1019.3mb 55f
12:50pm 6ft 9s 7s 2 4 mph 1019.4mb 55f
11:50am 6ft 9s 7s 4 4 mph 1019.5mb 55f
10:50am 6.5ft 10s 7s  -  2 mph 1019.4mb 55f
9:50am 6ft 9s 7s  -  2 mph 1019.3mb 55f
8:50am 5.5ft 10s 7s 2 7 mph 1019.2mb 54f
7:50am 5.5ft 9s 7s 2 4 mph 1018.8mb 54f
6:50am 6ft 9s 7s 2 4 mph 1018.4mb 54f
5:50am 6ft 9s 7s 2 4 mph 1018.2mb 54f
4:50am 6.5ft 10s 7s  -  2 mph 1017.7mb 54f
3:50am 6ft 10s 6s 2 4 mph 1017.6mb 54f
2:50am 6.5ft 9s 6s 4 7 mph 1017.3mb 54f
1:50am 6.5ft 10s 6s 4 7 mph 1017mb 54f
12:50am 7ft 10s 6s 4 13 mph 1016.8mb 54f
Fri 05/26 11:50pm 7ft 9s 6s 16 18 mph 1015.6mb 54f
10:50pm 7ft 9s 6s 16 18 mph 1015.6mb 54f
9:50pm 7ft 9s 6s 18 20 mph 1015.3mb 54f
8:50pm 6ft 10s 6s 18 22 mph 1014.9mb 54f
7:50pm 6ft 9s 6s 18 20 mph 1014.7mb 54f
6:50pm 6.5ft 9s 7s 18 20 mph 1014.4mb 55f
5:50pm 7ft 10s 7s 16 18 mph 1014.5mb 55f
4:50pm 7ft 9s 7s 16 18 mph 1014.5mb 55f
3:50pm 7ft 10s 7s 16 18 mph 1014.4mb 55f
2:50pm 7ft 10s 7s 16 20 mph 1014.4mb 55f
1:50pm 7ft 10s 7s 13 18 mph 1014.3mb 55f
12:50pm 7ft 10s 7s 11 13 mph 1014.5mb 54f
11:50am 7.5ft 10s 7s 13 16 mph 1014.2mb 54f
10:50am 7ft 10s 7s 13 16 mph 1014mb 54f
9:50am 7ft 10s 7s 11 16 mph 1013.7mb 54f
8:50am 7ft 10s 7s 13 16 mph 1013.4mb 54f
7:50am 8ft 10s 7s 13 16 mph 1013.2mb 54f
6:50am 7ft 10s 7s 13 16 mph 1012.7mb 53f
5:50am 9ft 10s 7s 13 16 mph 1012.2mb 53f
4:50am 8ft 10s 7s 13 16 mph 1012mb 53f
3:50am 8ft 10s 7s 13 18 mph 1011.8mb 53f
2:50am 9ft 10s 7s 13 18 mph 1011.6mb 53f
1:50am 9ft 10s 7s 16 20 mph 1011.4mb 53f
12:50am 8.5ft 11s 7s 16 20 mph 1011.3mb 53f
Thu 05/25 11:50pm 7.5ft 11s 6s 16 20 mph 1011.1mb 54f
10:50pm 9ft 9s 7s 16 18 mph 1011.1mb 54f
9:50pm 9ft 10s 7s 16 20 mph 1011mb 54f
8:50pm 9ft 10s 7s 18 20 mph 1010.6mb 54f
7:50pm 9ft 11s 7s 18 22 mph 1010.6mb 54f
6:50pm 10ft 11s 7s 20 22 mph 1010.4mb 54f
5:50pm 10ft 10s 7s 20 25 mph 1010.6mb 54f
4:50pm 9.5ft 10s 8s 18 22 mph 1010.7mb 54f
3:50pm 11ft 11s 8s 18 20 mph 1011.1mb 54f
2:50pm 11ft 11s 8s 18 22 mph 1011.6mb 53f
1:50pm 10ft 11s 8s 18 20 mph 1011.7mb 53f
12:50pm 10.5ft 11s 8s 16 20 mph 1011.7mb 53f
11:50am 11ft 11s 8s 16 18 mph 1011.9mb 53f
10:50am 11ft 11s 8s 16 20 mph 1012mb 53f
9:50am 10.5ft 11s 7s 13 18 mph 1012.4mb 53f
8:50am 10ft 9s 7s 16 18 mph 1012.5mb 52f
7:50am 10.5ft 11s 8s 13 16 mph 1012.8mb 52f
6:50am 11.5ft 10s 8s 13 16 mph 1012.7mb 52f
5:50am 10ft 10s 7s 13 16 mph 1012.7mb 52f
4:50am 11ft 10s 8s 11 13 mph 1012.8mb 52f
3:50am 9.5ft 9s 7s 11 13 mph 1013mb 53f
2:50am 9ft 9s 7s 13 18 mph 1012.9mb 53f
1:50am 8.5ft 10s 7s 16 20 mph 1013.2mb 53f
12:50am 8ft 9s 7s 18 20 mph 1013.8mb 54f
Wed 05/24 11:50pm 8ft 9s 7s 18 20 mph 1014.2mb 54f
10:50pm 8ft 9s 6s 18 22 mph 1014.8mb 54f
9:50pm 8ft 9s 7s 16 20 mph 1015mb 54f
8:50pm 8ft 9s 6s 18 20 mph 1015.2mb 54f
7:50pm 7.5ft 8s 6s 20 22 mph 1015.5mb 54f
6:50pm 7.5ft 8s 6s 20 22 mph 1016mb 54f
5:50pm 8ft 8s 6s 20 25 mph 1016.6mb 54f
4:50pm 8ft 9s 6s 20 25 mph 1017mb 54f
3:50pm 9ft 8s 6s 20 25 mph 1017.4mb 54f
2:50pm 9ft 8s 7s 20 22 mph 1018.2mb 54f
1:50pm 9.5ft 8s 7s 13 18 mph 1018.8mb 54f
12:50pm 9ft 8s 7s 13 16 mph 1019.1mb 53f
11:50am 9ft 8s 7s 13 18 mph 1019.6mb 53f
10:50am 8ft 8s 7s 18 20 mph 1020mb 53f
9:50am 9ft 8s 7s 16 20 mph 1020.3mb 53f
8:50am 8.5ft 8s 7s 18 20 mph 1020.5mb 53f
7:50am 8.5ft 8s 6s 18 22 mph 1020.4mb 52f
6:50am 9ft 8s 7s 22 27 mph 1020.3mb 52f